Time;durP1;ratioP1;P1;durP2;ratioP2;P2;SDS_P1;SDS_P2;PMS_P1;PMS_P2;Temp;Humidity;BMP_temperature;BMP_pressure;BME280_temperature;BME280_humidity;BME280_pressure;Samples;Min_cycle;Max_cycle;Signal;HPM_P1;HPM_P2
2023/08/15 00:00:37;;;;;;;8.75;7.18;;;;;;;20.66;100.00;100216.47;4959500;28;20042;-71
2023/08/15 00:03:05;;;;;;;11.88;7.93;;;;;;;20.69;100.00;100220.72;4993208;28;20046;-70
2023/08/15 00:05:34;;;;;;;11.40;7.90;;;;;;;20.69;100.00;100217.19;4981384;28;20070;-70
2023/08/15 00:08:02;;;;;;;12.13;8.60;;;;;;;20.61;100.00;100209.81;4988065;28;20053;-70
2023/08/15 00:10:30;;;;;;;10.45;7.53;;;;;;;20.68;100.00;100210.94;4985579;28;20065;-70
2023/08/15 00:12:58;;;;;;;11.07;7.53;;;;;;;20.72;100.00;100207.00;4989153;28;20114;-71
2023/08/15 00:15:27;;;;;;;9.98;6.97;;;;;;;20.71;100.00;100210.66;4967505;28;20042;-70
2023/08/15 00:18:00;;;;;;;11.27;7.72;;;;;;;20.69;100.00;100206.41;5001776;28;20054;-70
2023/08/15 00:20:33;;;;;;;13.18;8.10;;;;;;;20.71;100.00;100199.06;4995769;28;20057;-72
2023/08/15 00:23:01;;;;;;;12.95;7.70;;;;;;;20.66;100.00;100189.56;5002932;28;20155;-70
2023/08/15 00:25:29;;;;;;;11.45;7.80;;;;;;;20.53;100.00;100174.69;4980703;28;20101;-69
2023/08/15 00:27:59;;;;;;;12.35;7.75;;;;;;;20.64;100.00;100194.22;4998860;28;20066;-70
2023/08/15 00:30:27;;;;;;;10.80;7.70;;;;;;;20.59;100.00;100201.03;4974832;28;20472;-71
2023/08/15 00:32:57;;;;;;;10.63;8.50;;;;;;;20.59;100.00;100206.41;4995926;28;20086;-69
2023/08/15 00:35:25;;;;;;;12.65;8.02;;;;;;;20.56;100.00;100201.31;5003068;28;20069;-70
2023/08/15 00:37:53;;;;;;;10.60;7.45;;;;;;;20.56;100.00;100202.16;4982456;28;20054;-69
2023/08/15 00:40:23;;;;;;;11.50;7.63;;;;;;;20.56;100.00;100195.94;4971306;28;20429;-70
2023/08/15 00:42:51;;;;;;;9.80;6.93;;;;;;;20.58;100.00;100200.19;4975909;28;20077;-70
2023/08/15 00:45:19;;;;;;;12.02;7.70;;;;;;;20.62;100.00;100192.66;4976904;28;20039;-69
2023/08/15 00:47:49;;;;;;;8.27;6.10;;;;;;;20.60;100.00;100182.06;4994079;28;20049;-71
2023/08/15 00:50:18;;;;;;;9.05;6.82;;;;;;;20.61;100.00;100174.84;4992863;28;20046;-70
2023/08/15 00:52:47;;;;;;;9.43;7.30;;;;;;;20.65;100.00;100174.41;5008549;28;20039;-70
2023/08/15 00:55:16;;;;;;;12.38;7.20;;;;;;;20.64;100.00;100175.38;5012437;28;20053;-70
2023/08/15 00:57:46;;;;;;;11.38;7.18;;;;;;;20.58;100.00;100173.28;4980340;28;20056;-71
2023/08/15 01:00:17;;;;;;;12.07;7.47;;;;;;;20.55;100.00;100173.56;4987207;28;20054;-70
2023/08/15 01:02:48;;;;;;;9.30;6.93;;;;;;;20.53;100.00;100164.78;5005114;28;20127;-70
2023/08/15 01:05:21;;;;;;;11.07;7.55;;;;;;;20.58;100.00;100164.38;5007342;28;20072;-70
2023/08/15 01:07:50;;;;;;;10.30;7.40;;;;;;;20.50;100.00;100159.69;5008671;28;20053;-70
2023/08/15 01:10:18;;;;;;;8.90;6.80;;;;;;;20.49;100.00;100155.28;4987760;28;20041;-70
2023/08/15 01:12:54;;;;;;;9.50;7.28;;;;;;;20.48;100.00;100171.56;4985568;28;20431;-70
2023/08/15 01:15:25;;;;;;;15.85;8.20;;;;;;;20.47;100.00;100181.47;5010717;28;20049;-70
2023/08/15 01:18:03;;;;;;;11.00;8.43;;;;;;;20.47;100.00;100186.84;5012224;28;20042;-70
2023/08/15 01:20:36;;;;;;;11.18;8.60;;;;;;;20.48;100.00;100187.69;4990027;28;20046;-71
2023/08/15 01:23:07;;;;;;;9.48;7.18;;;;;;;20.44;100.00;100189.84;4999464;28;20173;-70
2023/08/15 01:25:41;;;;;;;10.23;7.68;;;;;;;20.44;100.00;100178.22;4996030;28;20056;-70
2023/08/15 01:28:12;;;;;;;9.07;7.55;;;;;;;20.46;100.00;100169.00;5012966;28;20050;-70
2023/08/15 01:30:47;;;;;;;8.82;7.75;;;;;;;20.42;100.00;100166.75;5011840;28;20061;-71
2023/08/15 01:33:24;;;;;;;13.68;7.32;;;;;;;20.40;100.00;100172.28;5014557;28;20191;-71
2023/08/15 01:36:01;;;;;;;12.38;8.10;;;;;;;20.34;100.00;100170.09;4998019;28;20461;-70
2023/08/15 01:38:37;;;;;;;10.27;7.55;;;;;;;20.29;100.00;100156.25;4999514;28;20050;-70
2023/08/15 01:41:10;;;;;;;9.88;7.55;;;;;;;20.35;100.00;100165.56;4971482;28;20076;-71
2023/08/15 01:43:40;;;;;;;9.63;8.18;;;;;;;20.33;100.00;100160.34;5010561;28;20081;-70
2023/08/15 01:46:08;;;;;;;10.45;7.85;;;;;;;20.33;100.00;100165.72;4996254;28;20498;-71
2023/08/15 01:48:42;;;;;;;9.50;7.72;;;;;;;20.16;100.00;100152.94;5013085;28;20073;-70
2023/08/15 01:51:11;;;;;;;10.23;8.80;;;;;;;20.24;100.00;100175.47;5008121;28;20050;-70
2023/08/15 01:53:42;;;;;;;11.25;9.25;;;;;;;20.18;100.00;100167.09;4997642;28;20145;-70
2023/08/15 01:56:14;;;;;;;11.13;8.50;;;;;;;20.14;100.00;100168.41;5014921;28;20049;-70
2023/08/15 01:58:42;;;;;;;12.90;8.70;;;;;;;20.12;100.00;100160.47;4996499;28;20054;-69
2023/08/15 02:01:11;;;;;;;11.85;8.80;;;;;;;20.14;100.00;100171.09;5003643;28;20037;-70
2023/08/15 02:03:39;;;;;;;11.70;8.25;;;;;;;20.07;100.00;100161.84;4977360;28;20041;-70
2023/08/15 02:06:09;;;;;;;12.48;9.30;;;;;;;20.14;100.00;100173.78;5011313;28;20442;-69
2023/08/15 02:08:38;;;;;;;12.23;9.30;;;;;;;20.11;100.00;100168.66;4996756;28;20046;-71
2023/08/15 02:11:06;;;;;;;10.32;8.32;;;;;;;19.99;100.00;100149.09;4976001;28;20053;-70
2023/08/15 02:13:37;;;;;;;17.13;8.80;;;;;;;20.01;100.00;100165.09;4994318;28;20057;-70
2023/08/15 02:16:05;;;;;;;14.90;8.98;;;;;;;19.99;100.00;100161.72;4995719;28;20050;-70
2023/08/15 02:18:34;;;;;;;13.18;10.15;;;;;;;20.00;100.00;100158.84;4981538;28;20056;-70
2023/08/15 02:21:01;;;;;;;15.63;10.15;;;;;;;19.96;100.00;100169.06;4987141;28;20054;-69
2023/08/15 02:23:30;;;;;;;14.55;10.02;;;;;;;19.82;100.00;100161.38;5013241;28;20053;-71
2023/08/15 02:26:00;;;;;;;12.52;8.40;;;;;;;19.87;100.00;100169.00;5011631;28;20045;-73
2023/08/15 02:28:31;;;;;;;8.82;7.90;;;;;;;19.85;100.00;100171.84;4994404;28;20053;-71
2023/08/15 02:31:04;;;;;;;12.38;9.95;;;;;;;19.86;100.00;100170.00;4988103;28;20125;-71
2023/08/15 02:33:33;;;;;;;10.85;9.32;;;;;;;19.86;100.00;100167.31;5008593;28;20100;-70
2023/08/15 02:36:05;;;;;;;17.75;11.05;;;;;;;19.77;100.00;100162.78;4977647;28;20050;-71
2023/08/15 02:38:39;;;;;;;14.73;10.10;;;;;;;19.76;100.00;100174.50;4992178;28;20038;-69
2023/08/15 02:41:08;;;;;;;15.27;10.52;;;;;;;19.70;100.00;100167.81;5002343;28;20105;-70
2023/08/15 02:43:36;;;;;;;12.65;10.13;;;;;;;19.82;100.00;100195.47;5007963;28;20129;-71
2023/08/15 02:46:06;;;;;;;11.88;9.77;;;;;;;19.82;100.00;100200.84;4991755;28;20529;-72
2023/08/15 02:48:35;;;;;;;16.03;10.33;;;;;;;19.82;100.00;100196.31;5011724;28;20049;-71
2023/08/15 02:51:07;;;;;;;11.93;9.32;;;;;;;19.83;100.00;100194.47;4971548;28;20053;-69
2023/08/15 02:53:36;;;;;;;12.55;9.38;;;;;;;19.80;100.00;100189.38;4997105;28;20053;-70
2023/08/15 02:56:04;;;;;;;13.57;10.40;;;;;;;19.85;100.00;100222.03;5012957;28;20050;-71
2023/08/15 02:58:32;;;;;;;14.13;9.65;;;;;;;19.80;100.00;100235.91;4991655;28;20041;-71
2023/08/15 03:01:02;;;;;;;19.67;10.75;;;;;;;19.82;100.00;100244.69;4983098;28;20114;-70
2023/08/15 03:03:31;;;;;;;12.93;10.03;;;;;;;19.83;100.00;100250.91;5008468;28;20054;-71
2023/08/15 03:06:02;;;;;;;11.35;9.90;;;;;;;19.85;100.00;100244.38;4995221;28;20057;-71
2023/08/15 03:08:31;;;;;;;11.90;9.65;;;;;;;19.84;100.00;100248.06;4995976;28;20129;-71
2023/08/15 03:11:00;;;;;;;15.85;9.55;;;;;;;19.87;100.00;100244.25;4971467;28;20053;-71
2023/08/15 03:13:29;;;;;;;12.18;9.68;;;;;;;19.92;100.00;100252.78;4989854;28;20054;-70
2023/08/15 03:15:59;;;;;;;;;;;;;;;19.94;100.00;100246.28;4997209;28;20054;-70
2023/08/15 03:18:32;;;;;;;14.65;8.80;;;;;;;19.96;100.00;100251.53;4995972;28;19925;-70
2023/08/15 03:21:06;;;;;;;11.88;8.57;;;;;;;20.02;100.00;100258.19;4989616;28;20038;-73
2023/08/15 03:23:34;;;;;;;12.07;8.13;;;;;;;20.03;100.00;100243.75;4977757;28;20070;-72
2023/08/15 03:26:04;;;;;;;10.40;7.55;;;;;;;20.13;100.00;100258.94;5003524;28;20050;-72
2023/08/15 03:28:35;;;;;;;11.25;7.47;;;;;;;20.15;100.00;100237.28;4983987;28;20039;-72
2023/08/15 03:31:08;;;;;;;10.20;7.85;;;;;;;20.23;100.00;100214.09;4986687;28;20042;-72
2023/08/15 03:33:48;;;;;;;10.85;7.78;;;;;;;20.30;100.00;100244.81;5010797;28;20045;-71
2023/08/15 03:36:19;;;;;;;11.75;7.53;;;;;;;20.39;100.00;100248.56;4992840;28;20046;-71
2023/08/15 03:38:48;;;;;;;11.52;9.00;;;;;;;20.42;100.00;100236.69;4995978;28;20069;-71
2023/08/15 03:41:16;;;;;;;12.20;9.13;;;;;;;20.29;100.00;100220.78;4973702;28;20046;-70
2023/08/15 03:43:46;;;;;;;14.00;9.55;;;;;;;20.02;100.00;100158.72;5008093;28;20042;-71
2023/08/15 03:46:14;;;;;;;10.82;9.57;;;;;;;19.78;100.00;100154.56;4995072;28;20054;-73
2023/08/15 03:48:44;;;;;;;;;;;;;;;19.76;100.00;100188.78;5012312;28;20038;-72
2023/08/15 03:51:13;;;;;;;12.85;10.57;;;;;;;19.71;100.00;100198.22;4996703;28;20453;-72
2023/08/15 03:54:02;;;;;;;14.52;10.68;;;;;;;19.68;100.00;100201.19;5009769;28;20085;-72
2023/08/15 03:56:30;;;;;;;19.25;14.70;;;;;;;19.70;100.00;100191.16;4996947;28;20038;-72
2023/08/15 03:58:58;;;;;;;20.40;14.50;;;;;;;19.74;100.00;100209.56;5008930;28;20113;-72
2023/08/15 04:01:26;;;;;;;21.67;15.73;;;;;;;19.87;100.00;100203.94;4985893;28;20127;-70
2023/08/15 04:03:56;;;;;;;22.55;17.25;;;;;;;19.96;100.00;100195.94;4988503;28;20052;-73
2023/08/15 04:06:26;;;;;;;24.92;19.67;;;;;;;19.99;100.00;100218.97;4989983;28;20053;-73
2023/08/15 04:08:54;;;;;;;28.30;18.10;;;;;;;19.94;100.00;100237.38;4993552;28;20046;-73
2023/08/15 04:11:22;;;;;;;23.65;19.15;;;;;;;20.02;100.00;100247.41;4983666;28;21090;-73
2023/08/15 04:13:50;;;;;;;26.88;20.00;;;;;;;20.06;100.00;100256.94;5008193;28;20125;-73
2023/08/15 04:16:18;;;;;;;32.95;24.58;;;;;;;20.09;100.00;100252.13;5007951;28;20054;-74
2023/08/15 04:18:47;;;;;;;27.63;20.17;;;;;;;20.11;100.00;100239.41;4993553;28;20417;-74
2023/08/15 04:21:15;;;;;;;32.88;22.83;;;;;;;20.13;100.00;100263.47;4985927;28;20077;-74
2023/08/15 04:23:46;;;;;;;33.85;24.75;;;;;;;20.13;100.00;100301.97;4978252;28;20081;-73
2023/08/15 04:26:14;;;;;;;32.90;23.85;;;;;;;20.14;100.00;100340.47;5006985;28;20057;-74
2023/08/15 04:28:42;;;;;;;39.38;26.00;;;;;;;20.13;100.00;100350.34;4975349;28;20121;-73
2023/08/15 04:31:12;;;;;;;39.47;27.13;;;;;;;20.17;100.00;100327.56;4984902;28;20587;-73
2023/08/15 04:33:42;;;;;;;36.85;26.35;;;;;;;20.16;100.00;100304.34;4975922;28;20042;-74
2023/08/15 04:36:11;;;;;;;30.23;22.42;;;;;;;20.16;100.00;100298.97;4994311;28;20046;-74
2023/08/15 04:38:39;;;;;;;27.48;20.98;;;;;;;20.17;100.00;100324.88;4996807;28;20058;-73
2023/08/15 04:41:09;;;;;;;27.60;21.48;;;;;;;20.20;100.00;100350.66;5015649;28;20109;-74
2023/08/15 04:43:38;;;;;;;31.42;22.25;;;;;;;20.22;100.00;100376.44;4991602;28;20065;-74
2023/08/15 04:46:07;;;;;;;34.15;25.65;;;;;;;20.26;100.00;100404.75;4993583;28;20054;-73
2023/08/15 04:48:35;;;;;;;29.65;21.77;;;;;;;20.24;100.00;100412.09;5009212;28;20235;-74
2023/08/15 04:51:03;;;;;;;29.20;20.92;;;;;;;20.26;100.00;100401.22;4971586;28;20060;-74
2023/08/15 04:53:33;;;;;;;20.75;16.23;;;;;;;20.24;100.00;100363.69;4986905;28;20061;-73
2023/08/15 04:56:05;;;;;;;28.98;19.63;;;;;;;20.27;100.00;100370.66;4985464;28;20069;-74
2023/08/15 04:58:35;;;;;;;17.67;11.55;;;;;;;20.16;100.00;100371.56;4991304;28;20494;-74
2023/08/15 05:01:04;;;;;;;16.67;10.00;;;;;;;20.12;100.00;100350.50;4990702;28;20046;-74
2023/08/15 05:03:32;;;;;;;14.43;10.85;;;;;;;20.04;100.00;100339.53;5008559;28;20038;-73
2023/08/15 05:06:00;;;;;;;15.88;10.43;;;;;;;20.03;100.00;100305.56;4990494;28;20049;-74
2023/08/15 05:08:30;;;;;;;9.60;6.85;;;;;;;19.82;100.00;100281.44;4984143;28;20137;-74
2023/08/15 05:11:00;;;;;;;7.07;5.43;;;;;;;19.71;100.00;100279.69;5000774;28;20046;-74
2023/08/15 05:13:28;;;;;;;11.07;6.97;;;;;;;19.69;100.00;100267.34;4989296;28;20048;-73
2023/08/15 05:15:58;;;;;;;10.35;7.20;;;;;;;19.72;100.00;100241.06;5008634;28;20045;-73
2023/08/15 05:18:27;;;;;;;12.60;6.95;;;;;;;19.75;100.00;100234.59;5004035;28;20153;-74
2023/08/15 05:20:55;;;;;;;9.95;7.93;;;;;;;19.63;100.00;100223.09;5013627;28;20057;-73
2023/08/15 05:23:23;;;;;;;9.75;6.97;;;;;;;19.76;100.00;100241.66;5015579;28;20423;-72
2023/08/15 05:25:52;;;;;;;8.82;6.78;;;;;;;19.75;100.00;100237.28;4986319;28;20055;-72
2023/08/15 05:28:21;;;;;;;8.45;7.10;;;;;;;19.76;100.00;100233.59;4980247;28;20046;-73
2023/08/15 05:30:50;;;;;;;8.57;6.93;;;;;;;19.75;100.00;100235.44;4998345;28;20101;-73
2023/08/15 05:33:22;;;;;;;8.23;7.35;;;;;;;19.83;100.00;100232.91;4980218;28;20053;-73
2023/08/15 05:35:50;;;;;;;11.10;8.05;;;;;;;19.80;100.00;100232.38;5001120;28;20042;-73
2023/08/15 05:38:19;;;;;;;9.40;7.18;;;;;;;19.89;100.00;100240.44;4993006;28;20042;-74
2023/08/15 05:40:48;;;;;;;10.80;7.32;;;;;;;19.89;100.00;100235.06;4977145;28;20433;-73
2023/08/15 05:43:16;;;;;;;9.30;6.82;;;;;;;19.97;100.00;100242.47;4985425;28;20465;-73
2023/08/15 05:45:48;;;;;;;8.48;6.63;;;;;;;19.99;100.00;100242.34;4988990;28;20055;-73
2023/08/15 05:48:16;;;;;;;9.50;6.95;;;;;;;20.01;100.00;100253.78;5004725;28;20062;-73
2023/08/15 05:50:47;;;;;;;9.93;7.00;;;;;;;20.02;100.00;100258.19;4992974;28;20077;-73
2023/08/15 05:53:16;;;;;;;8.82;6.78;;;;;;;19.94;100.00;100242.75;4989523;28;20045;-72
2023/08/15 05:55:43;;;;;;;7.43;6.60;;;;;;;20.15;100.00;100273.09;5019257;28;20100;-73
2023/08/15 05:58:12;;;;;;;11.25;7.25;;;;;;;20.17;100.00;100262.19;5007451;28;20791;-72
2023/08/15 06:00:41;;;;;;;9.65;7.22;;;;;;;20.25;100.00;100270.44;4978303;28;20049;-72
2023/08/15 06:03:09;;;;;;;7.97;6.90;;;;;;;20.29;100.00;100278.09;4989847;28;20409;-73
2023/08/15 06:05:37;;;;;;;8.30;6.63;;;;;;;20.35;100.00;100287.44;4989721;28;20061;-73
2023/08/15 06:08:07;;;;;;;10.13;7.32;;;;;;;20.41;100.00;100283.41;5010849;28;20042;-73
2023/08/15 06:10:35;;;;;;;8.38;6.85;;;;;;;20.45;100.00;100279.47;5011207;28;20061;-72
2023/08/15 06:13:03;;;;;;;8.40;6.95;;;;;;;20.51;100.00;100277.03;4989296;28;20050;-74
2023/08/15 06:15:31;;;;;;;8.52;7.22;;;;;;;20.65;100.00;100282.03;4979517;28;20054;-74
2023/08/15 06:18:02;;;;;;;12.10;8.25;;;;;;;20.72;100.00;100287.72;5003903;28;20041;-73
2023/08/15 06:20:31;;;;;;;11.43;8.35;;;;;;;20.77;100.00;100295.38;5009383;28;20142;-72
2023/08/15 06:22:59;;;;;;;11.77;7.90;;;;;;;20.80;100.00;100292.38;5003560;28;20050;-73
2023/08/15 06:25:29;;;;;;;10.75;7.65;;;;;;;20.77;100.00;100290.00;5013095;28;20450;-75
2023/08/15 06:27:58;;;;;;;9.05;7.10;;;;;;;20.84;100.00;100301.88;4993077;28;20064;-73
2023/08/15 06:30:26;;;;;;;11.20;8.38;;;;;;;20.88;100.00;100311.38;5000621;28;20046;-73
2023/08/15 06:32:54;;;;;;;12.18;8.18;;;;;;;20.96;100.00;100307.00;4996954;28;20053;-73
2023/08/15 06:35:27;;;;;;;11.55;9.88;;;;;;;21.11;100.00;100312.81;4974971;28;20046;-74
2023/08/15 06:37:55;;;;;;;12.68;10.10;;;;;;;21.28;100.00;100306.75;4984910;28;20050;-75
2023/08/15 06:40:25;;;;;;;12.25;9.77;;;;;;;21.39;100.00;100318.38;4981746;28;20066;-75
2023/08/15 06:42:57;;;;;;;12.70;10.00;;;;;;;21.59;100.00;100328.97;5003548;28;20081;-76
2023/08/15 06:45:32;;;;;;;12.00;10.05;;;;;;;21.80;100.00;100319.88;5010006;28;20038;-74
2023/08/15 06:48:00;;;;;;;11.52;8.73;;;;;;;22.09;100.00;100330.59;5005220;28;20053;-75
2023/08/15 06:50:30;;;;;;;10.87;8.00;;;;;;;22.26;100.00;100332.50;4991500;28;20136;-75
2023/08/15 06:52:59;;;;;;;9.38;7.18;;;;;;;22.20;100.00;100322.31;4983497;28;20049;-75
2023/08/15 06:55:27;;;;;;;8.90;7.30;;;;;;;22.27;100.00;100340.47;5003067;28;20391;-75
2023/08/15 06:57:56;;;;;;;11.70;8.23;;;;;;;22.06;100.00;100312.84;4983643;28;20052;-75
2023/08/15 07:00:25;;;;;;;12.20;8.57;;;;;;;22.22;100.00;100336.50;5004132;28;20045;-74
2023/08/15 07:02:53;;;;;;;11.52;8.68;;;;;;;22.36;100.00;100333.31;4986454;28;20133;-75
2023/08/15 07:05:21;;;;;;;12.50;9.13;;;;;;;22.44;100.00;100328.03;4991822;28;20052;-75
2023/08/15 07:07:49;;;;;;;13.63;9.13;;;;;;;22.60;100.00;100328.22;4997523;28;20065;-75
2023/08/15 07:10:17;;;;;;;14.70;11.43;;;;;;;22.94;100.00;100314.13;5004411;28;20110;-75
2023/08/15 07:12:45;;;;;;;14.18;10.98;;;;;;;23.28;100.00;100330.50;4986004;28;20512;-75
2023/08/15 07:15:16;;;;;;;13.70;10.70;;;;;;;23.49;100.00;100325.59;5012596;28;20112;-75
2023/08/15 07:17:44;;;;;;;15.43;10.55;;;;;;;23.63;100.00;100313.41;5011379;28;20046;-74
2023/08/15 07:20:14;;;;;;;13.10;9.77;;;;;;;23.92;100.00;100324.78;5013207;28;20127;-74
2023/08/15 07:22:45;;;;;;;14.60;10.60;;;;;;;24.04;100.00;100328.91;4975285;28;20210;-74
2023/08/15 07:25:14;;;;;;;15.35;11.05;;;;;;;24.01;100.00;100323.81;5009351;28;20068;-76
2023/08/15 07:27:42;;;;;;;12.35;10.20;;;;;;;24.09;100.00;100329.25;5009307;28;20470;-72
2023/08/15 07:30:12;;;;;;;12.23;9.77;;;;;;;24.22;100.00;100317.16;5004831;28;20092;-73
2023/08/15 07:32:47;;;;;;;13.68;9.95;;;;;;;24.18;100.00;100330.16;4974799;28;20041;-73
2023/08/15 07:35:17;;;;;;;15.05;8.48;;;;;;;24.17;100.00;100331.16;4988966;28;20057;-75
2023/08/15 07:37:45;;;;;;;10.30;8.32;;;;;;;24.17;100.00;100328.47;5010587;28;20503;-73
2023/08/15 07:40:20;;;;;;;7.72;6.40;;;;;;;24.34;100.00;100329.44;5012303;28;20046;-74
2023/08/15 07:42:49;;;;;;;10.13;6.28;;;;;;;24.43;100.00;100337.41;4987167;28;20057;-73
2023/08/15 07:45:18;;;;;;;6.75;5.50;;;;;;;24.47;100.00;100337.94;4993581;28;20053;-73
2023/08/15 07:47:51;;;;;;;7.85;4.60;;;;;;;24.63;100.00;100348.84;5009052;28;20046;-73
2023/08/15 07:50:22;;;;;;;6.57;4.00;;;;;;;24.72;100.00;100337.00;5012421;28;20076;-73
2023/08/15 07:52:51;;;;;;;7.53;3.83;;;;;;;25.02;100.00;100353.75;4990556;28;20050;-73
2023/08/15 07:55:19;;;;;;;6.25;3.90;;;;;;;25.20;100.00;100357.13;4978923;28;20045;-74
2023/08/15 07:57:47;;;;;;;4.57;3.70;;;;;;;25.39;100.00;100359.53;5012658;28;20774;-75
2023/08/15 08:00:16;;;;;;;5.20;4.13;;;;;;;25.51;100.00;100362.75;4988941;28;20050;-75
2023/08/15 08:02:45;;;;;;;8.63;4.40;;;;;;;25.81;100.00;100369.41;4974060;28;20596;-75
2023/08/15 08:05:15;;;;;;;5.80;3.97;;;;;;;26.05;100.00;100366.66;4996113;28;20092;-76
2023/08/15 08:07:45;;;;;;;5.45;4.18;;;;;;;26.20;100.00;100378.50;5018751;28;20061;-75
2023/08/15 08:10:16;;;;;;;6.65;4.35;;;;;;;26.03;100.00;100371.41;5013339;28;20045;-75
2023/08/15 08:12:45;;;;;;;5.90;4.40;;;;;;;25.97;100.00;100379.41;4995287;28;20053;-75
2023/08/15 08:15:13;;;;;;;6.23;4.23;;;;;;;26.09;100.00;100383.44;4996287;28;20045;-76
2023/08/15 08:17:43;;;;;;;8.82;4.78;;;;;;;26.02;100.00;100380.56;5012262;28;20040;-73
2023/08/15 08:20:13;;;;;;;9.23;5.35;;;;;;;26.04;100.00;100375.81;4992022;28;20041;-72
2023/08/15 08:22:42;;;;;;;10.95;5.55;;;;;;;26.03;100.00;100376.84;5008444;28;20100;-72
2023/08/15 08:25:19;;;;;;;5.90;4.45;;;;;;;25.88;100.00;100372.28;4991531;28;20997;-72
2023/08/15 08:27:48;;;;;;;7.80;5.03;;;;;;;25.76;100.00;100379.94;5007754;28;20070;-73
2023/08/15 08:30:19;;;;;;;6.53;5.30;;;;;;;25.63;100.00;100371.47;4987406;28;20136;-73
2023/08/15 08:32:47;;;;;;;6.68;5.68;;;;;;;25.62;100.00;100372.47;4977135;28;20336;-75
2023/08/15 08:35:16;;;;;;;8.70;5.57;;;;;;;25.70;100.00;100376.00;4996747;28;20049;-74
2023/08/15 08:37:49;;;;;;;9.23;6.45;;;;;;;25.78;100.00;100373.31;5000970;28;20055;-74
2023/08/15 08:40:24;;;;;;;10.27;6.68;;;;;;;25.79;100.00;100356.03;4996467;28;20218;-77
2023/08/15 08:42:52;;;;;;;7.18;5.38;;;;;;;25.75;100.00;100375.50;5007726;28;20061;-73
2023/08/15 08:45:24;;;;;;;6.07;5.47;;;;;;;25.70;100.00;100358.91;4989713;28;20144;-73
2023/08/15 08:47:56;;;;;;;10.18;6.68;;;;;;;25.72;100.00;100356.88;5010993;28;20042;-76
2023/08/15 08:50:26;;;;;;;13.23;5.53;;;;;;;25.43;100.00;100358.19;4992147;28;20140;-73
2023/08/15 08:52:57;;;;;;;6.50;4.97;;;;;;;25.41;100.00;100365.63;4973451;28;20058;-76
2023/08/15 08:55:27;;;;;;;5.15;4.65;;;;;;;25.38;100.00;100365.97;4989026;28;20054;-72
2023/08/15 08:58:02;;;;;;;7.13;5.10;;;;;;;25.95;100.00;100365.16;4986918;28;20525;-74
2023/08/15 09:00:34;;;;;;;6.95;5.57;;;;;;;26.37;100.00;100373.06;5006445;28;20065;-75
2023/08/15 09:03:03;;;;;;;8.15;5.55;;;;;;;26.12;100.00;100370.41;4985653;28;21029;-73
2023/08/15 09:05:31;;;;;;;9.30;6.18;;;;;;;26.19;100.00;100381.38;5008917;28;20418;-72
2023/08/15 09:08:01;;;;;;;9.48;6.60;;;;;;;25.71;100.00;100380.44;5014515;28;20053;-72
2023/08/15 09:10:30;;;;;;;9.30;6.45;;;;;;;25.28;100.00;100369.88;4997219;28;20046;-72
2023/08/15 09:13:00;;;;;;;7.90;5.70;;;;;;;25.35;100.00;100379.84;5007614;28;20096;-72
2023/08/15 09:15:30;;;;;;;;;;;;;;;25.55;100.00;100383.09;5003881;28;20057;-72
2023/08/15 09:18:06;;;;;;;6.43;5.82;;;;;;;25.86;100.00;100375.16;5010494;28;19987;-72
2023/08/15 09:20:48;;;;;;;8.82;6.32;;;;;;;25.77;100.00;100382.47;5006954;28;20497;-73
2023/08/15 09:23:19;;;;;;;8.85;5.82;;;;;;;25.70;100.00;100361.59;4998826;28;20188;-73
2023/08/15 09:25:48;;;;;;;8.80;5.63;;;;;;;26.02;100.00;100377.00;5005531;28;20042;-72
2023/08/15 09:28:18;;;;;;;8.32;6.10;;;;;;;26.07;100.00;100370.06;5000370;28;20038;-72
2023/08/15 09:30:53;;;;;;;7.43;6.07;;;;;;;26.05;100.00;100374.81;5001734;28;20033;-72
2023/08/15 09:33:21;;;;;;;7.90;5.25;;;;;;;26.11;100.00;100387.69;5005857;28;20050;-72
2023/08/15 09:35:52;;;;;;;8.68;5.53;;;;;;;25.82;100.00;100384.66;4991377;28;20433;-71
2023/08/15 09:38:28;;;;;;;5.85;5.30;;;;;;;25.65;100.00;100374.84;5005233;28;20522;-72
2023/08/15 09:40:57;;;;;;;8.90;5.50;;;;;;;25.93;100.00;100378.91;4988134;28;20056;-74
2023/08/15 09:43:26;;;;;;;;;;;;;;;26.36;100.00;100384.94;4985552;28;20152;-72
2023/08/15 09:45:58;;;;;;;5.82;5.18;;;;;;;26.67;100.00;100385.00;4986707;28;19929;-72
2023/08/15 09:48:28;;;;;;;5.35;4.85;;;;;;;26.69;100.00;100389.25;5009402;28;20049;-72
2023/08/15 09:50:57;;;;;;;8.07;5.40;;;;;;;26.92;100.00;100396.63;4994272;28;20038;-73
2023/08/15 09:53:28;;;;;;;9.10;5.22;;;;;;;27.05;100.00;100386.06;4988851;28;20791;-73
2023/08/15 09:55:57;;;;;;;9.52;5.55;;;;;;;26.81;100.00;100392.41;4991816;28;20060;-73
2023/08/15 09:58:26;;;;;;;4.50;3.83;;;;;;;26.72;100.00;100391.63;4992064;28;20105;-72
2023/08/15 10:00:58;;;;;;;6.78;4.38;;;;;;;26.89;100.00;100393.22;4972624;28;20053;-72
2023/08/15 10:03:35;;;;;;;6.40;4.70;;;;;;;27.16;100.00;100397.34;4974956;28;20054;-76
2023/08/15 10:06:04;;;;;;;6.90;4.57;;;;;;;27.08;100.00;100399.25;4987968;28;20054;-73
2023/08/15 10:08:38;;;;;;;6.70;4.00;;;;;;;27.19;100.00;100386.13;5010550;28;20049;-73
2023/08/15 10:11:09;;;;;;;4.93;3.85;;;;;;;27.50;100.00;100377.94;4979039;28;20050;-73
2023/08/15 10:13:38;;;;;;;;;;;;;;;27.90;96.95;100387.63;4985260;28;20434;-73
2023/08/15 10:16:07;;;;;;;7.65;3.45;;;;;;;28.23;89.36;100381.91;5012492;28;19929;-73
2023/08/15 10:18:35;;;;;;;6.80;3.95;;;;;;;28.62;88.83;100392.53;4977758;28;20128;-71
2023/08/15 10:21:04;;;;;;;4.88;4.10;;;;;;;29.00;84.85;100392.41;5007804;28;20034;-71
2023/08/15 10:23:36;;;;;;;5.10;4.00;;;;;;;29.32;82.50;100394.66;5008111;28;20065;-72
2023/08/15 10:26:06;;;;;;;6.90;3.92;;;;;;;29.50;81.96;100394.25;4988798;28;20052;-72
2023/08/15 10:28:35;;;;;;;;;;;;;;;29.47;83.03;100391.91;5010652;28;20568;-72
2023/08/15 10:31:04;;;;;;;6.35;4.07;;;;;;;29.13;87.80;100395.28;5025578;28;19921;-72
2023/08/15 10:33:34;;;;;;;9.90;3.88;;;;;;;28.81;90.04;100400.13;5028631;28;20153;-71
2023/08/15 10:36:08;;;;;;;5.75;3.83;;;;;;;28.42;96.33;100403.16;5034908;28;20052;-71
2023/08/15 10:38:40;;;;;;;8.48;4.78;;;;;;;28.07;97.98;100404.66;5010143;28;20059;-72
2023/08/15 10:41:13;;;;;;;5.20;3.95;;;;;;;28.03;100.00;100406.06;5010522;28;20045;-71
2023/08/15 10:43:48;;;;;;;5.60;3.97;;;;;;;28.12;100.00;100402.25;5024400;28;20414;-72
2023/08/15 10:46:18;;;;;;;5.30;3.47;;;;;;;28.09;94.65;100410.78;5011477;28;20055;-72
2023/08/15 10:48:49;;;;;;;4.95;2.80;;;;;;;27.94;94.54;100405.28;5030829;28;20045;-73
2023/08/15 10:51:23;;;;;;;4.45;3.05;;;;;;;28.06;91.86;100413.00;5016013;28;20037;-73
2023/08/15 10:53:58;;;;;;;3.95;2.95;;;;;;;27.79;94.27;100419.91;5010445;28;20057;-72
2023/08/15 10:56:27;;;;;;;4.43;3.50;;;;;;;27.70;95.87;100416.41;5032624;28;20041;-72
2023/08/15 10:58:58;;;;;;;4.35;3.38;;;;;;;27.47;96.16;100420.94;5025030;28;20093;-72
2023/08/15 11:01:28;;;;;;;4.85;3.20;;;;;;;27.44;97.07;100443.91;5013720;28;20044;-73
2023/08/15 11:03:58;;;;;;;4.15;3.03;;;;;;;27.17;98.08;100439.81;5029177;28;20049;-71
2023/08/15 11:06:29;;;;;;;5.95;3.03;;;;;;;26.89;100.00;100447.59;5016801;28;20049;-72
2023/08/15 11:09:01;;;;;;;8.33;3.00;;;;;;;26.66;100.00;100449.34;5029102;28;20049;-72
2023/08/15 11:11:33;;;;;;;6.05;2.90;;;;;;;26.45;100.00;100447.19;5010703;28;20049;-73
2023/08/15 11:14:04;;;;;;;5.30;2.78;;;;;;;26.33;100.00;100453.16;5027692;28;21629;-73
2023/08/15 11:16:33;;;;;;;5.88;2.95;;;;;;;26.21;100.00;100464.34;5012048;28;20116;-73
2023/08/15 11:19:01;;;;;;;5.90;2.60;;;;;;;26.13;100.00;100486.03;5029547;28;20056;-72
2023/08/15 11:21:30;;;;;;;5.20;3.30;;;;;;;25.60;100.00;100480.22;5011701;28;20708;-72
2023/08/15 11:24:02;;;;;;;8.73;4.18;;;;;;;24.46;100.00;100487.84;5006679;28;20295;-71
2023/08/15 11:26:31;;;;;;;5.53;3.28;;;;;;;23.41;100.00;100496.66;5016322;28;20060;-71